createdAt,value
2022-08-19T00:01:38.633Z,99646.75
2022-08-19T00:07:40.544Z,99661.16
2022-08-19T00:13:42.460Z,99670.84
2022-08-19T00:19:44.268Z,99650.06
2022-08-19T00:25:48.748Z,99678.88
2022-08-19T00:31:54.611Z,99656.94
2022-08-19T00:37:57.196Z,99661.97
2022-08-19T00:44:05.539Z,99652.78
2022-08-19T00:50:09.536Z,99688.25
2022-08-19T00:56:12.007Z,99673.31
2022-08-19T01:02:13.798Z,99622.88
2022-08-19T01:08:18.237Z,99675.28
2022-08-19T01:14:20.839Z,99674.41
2022-08-19T01:20:24.422Z,99665.53
2022-08-19T01:26:27.540Z,99680.50
2022-08-19T01:32:33.939Z,99668.56
2022-08-19T01:38:44.099Z,99640.59
2022-08-19T01:44:46.801Z,99681.88
2022-08-19T01:50:49.102Z,99670.00
2022-08-19T01:56:54.272Z,99657.25
2022-08-19T02:02:56.037Z,99657.22
2022-08-19T02:08:58.533Z,99675.25
2022-08-19T02:15:00.979Z,99675.25
2022-08-19T02:21:02.715Z,99664.69
2022-08-19T02:27:05.864Z,99664.41
2022-08-19T02:33:07.624Z,99677.16
2022-08-19T02:39:10.018Z,99665.22
2022-08-19T02:45:12.078Z,99682.69
2022-08-19T02:51:21.814Z,99683.78
2022-08-19T02:57:23.896Z,99648.59
2022-08-19T03:03:25.893Z,99661.59
2022-08-19T03:09:27.725Z,99701.22
2022-08-19T03:15:29.589Z,99700.38
2022-08-19T03:21:33.754Z,99707.03
2022-08-19T03:27:35.995Z,99705.06
2022-08-19T03:33:39.778Z,99718.34
2022-08-19T03:39:43.315Z,99722.50
2022-08-19T03:45:45.102Z,99730.19
2022-08-19T03:51:49.141Z,99737.44
2022-08-19T03:57:50.883Z,99737.69
2022-08-19T04:03:53.486Z,99765.63
2022-08-19T04:09:56.275Z,99753.69
2022-08-19T04:15:58.007Z,99783.09
2022-08-19T04:21:59.820Z,99782.84
2022-08-19T04:28:01.554Z,99747.91
2022-08-19T04:34:08.166Z,99774.56
2022-08-19T04:40:28.743Z,99764.31
2022-08-19T04:46:40.539Z,99752.78
2022-08-19T04:52:54.442Z,99718.38
2022-08-19T04:58:57.907Z,99750.00
2022-08-19T05:05:01.591Z,99736.28
2022-08-19T05:11:14.166Z,99767.22
2022-08-19T05:17:37.498Z,99770.31
2022-08-19T05:23:38.157Z,99762.00
2022-08-19T05:29:40.212Z,99771.41
2022-08-19T05:35:42.231Z,99758.63
2022-08-19T05:41:45.360Z,99695.81
2022-08-19T05:47:47.147Z,99745.88
2022-08-19T05:53:48.914Z,99698.03
2022-08-19T05:59:57.631Z,99720.44
2022-08-19T06:06:01.241Z,99769.19
2022-08-19T06:12:04.039Z,99738.41
2022-08-19T06:18:05.821Z,99769.78
2022-08-19T06:24:10.280Z,99736.53
2022-08-19T06:30:13.424Z,99766.44
2022-08-19T06:36:35.050Z,99757.84
2022-08-19T06:42:36.873Z,99783.88
2022-08-19T06:48:45.682Z,99725.47
2022-08-19T06:54:56.083Z,99791.34
2022-08-19T07:01:04.454Z,99781.38
2022-08-19T07:07:21.005Z,99776.66
2022-08-19T07:13:23.312Z,99781.09
2022-08-19T07:19:30.399Z,99775.84
2022-08-19T07:25:33.426Z,99771.94
2022-08-19T07:31:38.261Z,99786.91
2022-08-19T07:37:45.377Z,99793.84
2022-08-19T07:43:48.201Z,99798.00
2022-08-19T07:49:49.915Z,99790.81
2022-08-19T08:13:09.170Z,99753.06
2022-08-19T08:19:25.778Z,99781.38
2022-08-19T08:25:27.813Z,99755.34
2022-08-19T08:31:35.124Z,99746.47
2022-08-19T08:37:37.731Z,99776.38
2022-08-19T08:43:44.628Z,99755.59
2022-08-19T08:50:15.607Z,99765.84
2022-08-19T08:56:18.439Z,99750.88
2022-08-19T09:02:20.765Z,99762.53
2022-08-19T09:08:51.331Z,99768.31
2022-08-19T09:15:05.640Z,99761.97
2022-08-19T09:21:08.791Z,99750.88
2022-08-19T09:27:18.403Z,99769.72
2022-08-19T09:33:21.004Z,99745.34
2022-08-19T09:39:23.029Z,99760.59
2022-08-19T09:45:24.795Z,99771.41
2022-08-19T09:51:29.412Z,99747.03
2022-08-19T09:57:31.164Z,99758.69
2022-08-19T10:03:34.219Z,99776.41
2022-08-19T10:09:36.046Z,99746.22
2022-08-19T10:15:47.571Z,99750.38
2022-08-19T10:21:49.981Z,99715.19
2022-08-19T10:27:51.905Z,99753.66
2022-08-19T10:33:59.245Z,99750.06
2022-08-19T10:40:07.029Z,99755.91
2022-08-19T10:46:13.754Z,99750.38
2022-08-19T10:52:39.023Z,99735.66
2022-08-19T10:58:42.774Z,99747.03
2022-08-19T11:04:44.478Z,99732.06
2022-08-19T11:10:50.552Z,99715.44
2022-08-19T11:16:56.871Z,99733.44
2022-08-19T11:22:58.592Z,99717.13
2022-08-19T11:29:01.617Z,99710.69
2022-08-19T11:35:03.614Z,99679.97
2022-08-19T11:41:10.814Z,99698.50
2022-08-19T11:47:12.547Z,99703.16
2022-08-19T11:53:14.249Z,99702.66
2022-08-19T11:59:16.893Z,99708.19
2022-08-19T12:05:18.872Z,99679.63
2022-08-19T12:11:21.091Z,99689.91
2022-08-19T12:17:23.427Z,99694.34
2022-08-19T12:23:25.113Z,99691.56
2022-08-19T12:29:30.362Z,99688.50
2022-08-19T12:35:32.923Z,99669.91
2022-08-19T12:41:34.598Z,99680.47
2022-08-19T12:47:38.021Z,99667.16
2022-08-19T12:53:43.457Z,99674.94
2022-08-19T12:59:45.754Z,99680.47
2022-08-19T13:05:47.417Z,99668.53
2022-08-19T13:11:49.121Z,99678.53
2022-08-19T13:17:52.798Z,99689.88
2022-08-19T13:23:55.310Z,99663.00
2022-08-19T13:30:15.807Z,99667.16
2022-08-19T13:36:17.493Z,99659.41
2022-08-19T13:42:20.272Z,99676.03
2022-08-19T13:48:22.798Z,99671.03
2022-08-19T13:54:24.614Z,99661.59
2022-08-19T14:00:29.106Z,99673.25
2022-08-19T14:06:30.910Z,99662.16
2022-08-19T14:12:33.194Z,99647.19
2022-08-19T14:18:35.085Z,99661.06
2022-08-19T14:24:40.803Z,99656.59
2022-08-19T14:30:49.670Z,99648.56
2022-08-19T14:36:56.914Z,99639.97
2022-08-19T14:43:04.958Z,99652.16
2022-08-19T14:49:09.372Z,99623.91
2022-08-19T14:55:11.546Z,99644.66
2022-08-19T15:01:14.199Z,99636.38
2022-08-19T15:07:15.985Z,99633.59
2022-08-19T15:13:17.917Z,99622.25
2022-08-19T15:19:19.682Z,99628.63
2022-08-19T15:25:21.997Z,99642.16
2022-08-19T15:31:28.537Z,99626.09
2022-08-19T15:37:30.901Z,99624.13
2022-08-19T15:43:33.400Z,99640.22
2022-08-19T15:49:35.142Z,99631.06
2022-08-19T15:55:43.779Z,99634.41
2022-08-19T16:02:03.861Z,99636.31
2022-08-19T16:08:06.602Z,99648.22
2022-08-19T16:14:09.567Z,99627.22
2022-08-19T16:20:11.634Z,99649.19
2022-08-19T16:26:15.457Z,99646.53
2022-08-19T16:32:17.221Z,99643.00
2022-08-19T16:38:18.989Z,99652.69
2022-08-19T16:44:21.303Z,99654.09
2022-08-19T16:50:39.311Z,99653.81
2022-08-19T16:56:46.006Z,99640.00
2022-08-19T17:02:47.784Z,99653.28
2022-08-19T17:08:51.542Z,99661.06
2022-08-19T17:14:53.278Z,99640.56
2022-08-19T17:20:56.897Z,99647.22
2022-08-19T17:26:58.641Z,99660.50
2022-08-19T17:33:00.450Z,99671.06
2022-08-19T17:39:04.399Z,99657.78
2022-08-19T17:45:06.823Z,99646.47
2022-08-19T17:51:33.064Z,99688.53
2022-08-19T17:57:34.758Z,99690.47
2022-08-19T18:03:36.498Z,99682.19
2022-08-19T18:09:42.202Z,99704.34
2022-08-19T18:15:44.562Z,99664.50
2022-08-19T18:21:47.109Z,99694.41
2022-08-19T18:27:49.049Z,99719.34
2022-08-19T18:33:52.745Z,99717.94
2022-08-19T18:40:13.207Z,99711.03
2022-08-19T18:46:34.970Z,99712.97
2022-08-19T18:52:40.035Z,99707.44
2022-08-19T18:58:42.702Z,99702.72
2022-08-19T19:04:45.689Z,99703.81
2022-08-19T19:10:47.808Z,99699.66
2022-08-19T19:16:52.868Z,99680.00
2022-08-19T19:22:56.018Z,99712.13
2022-08-19T19:29:00.026Z,99706.31
2022-08-19T19:35:01.903Z,99703.56
2022-08-19T19:41:04.762Z,99710.47
2022-08-19T19:47:07.042Z,99723.22
2022-08-19T19:53:08.773Z,99714.09
2022-08-19T19:59:10.669Z,99721.00
2022-08-19T20:05:13.340Z,99735.69
2022-08-19T20:11:32.997Z,99733.19
2022-08-19T20:17:42.415Z,99729.63
2022-08-19T20:23:44.334Z,99740.41
2022-08-19T20:30:13.879Z,99742.34
2022-08-19T20:36:21.086Z,99725.47
2022-08-19T20:42:23.016Z,99743.72
2022-08-19T20:48:24.907Z,99733.47
2022-08-19T20:54:27.473Z,99737.94
2022-08-19T21:00:30.586Z,99751.78
2022-08-19T21:06:32.326Z,99751.22
2022-08-19T21:12:34.134Z,99761.47
2022-08-19T21:18:36.048Z,99755.94
2022-08-19T21:24:38.105Z,99743.47
2022-08-19T21:30:41.510Z,99744.84
2022-08-19T21:36:43.375Z,99734.88
2022-08-19T21:42:46.127Z,99742.09
2022-08-19T21:48:48.657Z,99717.16
2022-08-19T21:54:50.549Z,99731.00
2022-08-19T22:00:52.397Z,99736.53
2022-08-19T22:06:54.227Z,99733.22
2022-08-19T22:12:56.705Z,99722.69
2022-08-19T22:18:59.482Z,99723.22
2022-08-19T22:25:30.048Z,99706.03
2022-08-19T22:31:33.883Z,99713.00
2022-08-19T22:37:35.630Z,99713.00
2022-08-19T22:43:37.590Z,99724.91
2022-08-19T22:49:39.351Z,99701.59
2022-08-19T22:55:41.061Z,99704.38
2022-08-19T23:01:42.894Z,99694.69
2022-08-19T23:07:44.724Z,99683.06
2022-08-19T23:13:54.242Z,99699.38
2022-08-19T23:19:55.946Z,99695.53
2022-08-19T23:25:57.721Z,99692.75
2022-08-19T23:31:59.391Z,99703.28
2022-08-19T23:38:03.899Z,99697.75
2022-08-19T23:44:06.684Z,99714.06
2022-08-19T23:50:16.803Z,99705.47
2022-08-19T23:56:18.526Z,99725.69
